Time;durP1;ratioP1;P1;durP2;ratioP2;P2;SDS_P1;SDS_P2;PMS_P1;PMS_P2;Temp;Humidity;BMP_temperature;BMP_pressure;BME280_temperature;BME280_humidity;BME280_pressure;Samples;Min_cycle;Max_cycle;Signal;HPM_P1;HPM_P2
2021/07/24 00:02:13;;;;;;;5.90;5.30;;;22.90;59.70;;;;;;5054830;28;20172;-70
2021/07/24 00:04:39;;;;;;;4.80;4.40;;;22.90;59.80;;;;;;5054276;28;20171;-70
2021/07/24 00:07:04;;;;;;;5.35;4.85;;;23.00;59.80;;;;;;5054723;28;20175;-71
2021/07/24 00:09:30;;;;;;;5.10;4.70;;;22.90;59.70;;;;;;5053797;28;20168;-71
2021/07/24 00:11:56;;;;;;;4.68;4.32;;;23.00;59.90;;;;;;5054560;28;20640;-71
2021/07/24 00:14:22;;;;;;;5.20;4.72;;;22.90;59.70;;;;;;5054528;28;20253;-71
2021/07/24 00:16:47;;;;;;;5.50;5.00;;;23.00;59.80;;;;;;5053892;28;20641;-72
2021/07/24 00:19:13;;;;;;;5.32;4.82;;;22.90;59.80;;;;;;5054402;28;20183;-71
2021/07/24 00:21:38;;;;;;;4.95;4.55;;;22.90;59.80;;;;;;5054145;28;20178;-71
2021/07/24 00:24:04;;;;;;;5.25;4.75;;;22.90;59.80;;;;;;5053589;28;20223;-70
2021/07/24 00:26:29;;;;;;;4.72;4.32;;;22.90;59.80;;;;;;5053768;28;20494;-70
2021/07/24 00:28:55;;;;;;;6.15;5.15;;;22.90;59.80;;;;;;5054434;28;20175;-69
2021/07/24 00:31:20;;;;;;;5.20;4.70;;;22.90;59.80;;;;;;5053535;28;20249;-69
2021/07/24 00:33:46;;;;;;;5.13;4.63;;;22.90;59.80;;;;;;5054083;28;20175;-69
2021/07/24 00:36:11;;;;;;;5.18;4.68;;;22.90;59.80;;;;;;5054277;28;20228;-70
2021/07/24 00:38:39;;;;;;;4.72;4.32;;;22.90;59.80;;;;;;5053307;28;20243;-71
2021/07/24 00:41:07;;;;;;;5.53;5.03;;;22.90;59.90;;;;;;5054032;28;20175;-71
2021/07/24 00:43:33;;;;;;;5.10;4.60;;;22.90;59.80;;;;;;5053725;28;20225;-70
2021/07/24 00:45:58;;;;;;;5.15;4.65;;;22.90;59.90;;;;;;5053484;28;20198;-71
2021/07/24 00:48:24;;;;;;;5.72;5.22;;;22.90;59.90;;;;;;5035673;28;20183;-70
2021/07/24 00:50:54;;;;;;;4.60;4.20;;;22.80;59.90;;;;;;5053893;28;20190;-70
2021/07/24 00:53:34;;;;;;;5.43;4.93;;;22.80;59.80;;;;;;5053029;28;20187;-70
2021/07/24 00:55:59;;;;;;;4.90;4.50;;;22.80;59.80;;;;;;5053773;28;20182;-69
2021/07/24 00:58:35;;;;;;;4.88;4.47;;;22.90;59.90;;;;;;5053139;28;20219;-70
2021/07/24 01:01:00;;;;;;;4.82;4.35;;;22.80;59.90;;;;;;5053468;28;20183;-69
2021/07/24 01:03:26;;;;;;;5.40;5.00;;;22.80;59.90;;;;;;5053371;28;20171;-69
2021/07/24 01:05:53;;;;;;;4.50;4.10;;;22.80;59.90;;;;;;5052924;28;20181;-71
2021/07/24 01:08:19;;;;;;;4.68;4.28;;;22.80;59.90;;;;;;5053081;28;20217;-71
2021/07/24 01:10:45;;;;;;;4.90;4.50;;;22.80;59.90;;;;;;5053465;28;20207;-72
2021/07/24 01:13:16;;;;;;;4.85;4.45;;;22.80;59.90;;;;;;5053064;28;20206;-71
2021/07/24 01:15:42;;;;;;;6.68;4.85;;;22.80;59.90;;;;;;5036155;28;20645;-71
2021/07/24 01:18:08;;;;;;;4.70;4.30;;;22.80;59.90;;;;;;5052485;28;20681;-72
2021/07/24 01:20:33;;;;;;;4.90;4.50;;;22.80;59.90;;;;;;5052818;28;20175;-71
2021/07/24 01:22:59;;;;;;;5.05;4.55;;;22.80;60.00;;;;;;5035388;28;20167;-72
2021/07/24 01:25:24;;;;;;;5.47;4.50;;;22.80;60.00;;;;;;5052798;28;20222;-70
2021/07/24 01:27:50;;;;;;;4.75;4.35;;;22.80;60.00;;;;;;5052741;28;20179;-69
2021/07/24 01:30:15;;;;;;;5.30;4.63;;;22.80;59.90;;;;;;5052733;28;20171;-69
2021/07/24 01:32:41;;;;;;;4.70;4.28;;;22.80;60.00;;;;;;5053167;28;20171;-69
2021/07/24 01:35:07;;;;;;;5.05;4.55;;;22.80;59.90;;;;;;5052646;28;20262;-70
2021/07/24 01:37:33;;;;;;;4.65;4.25;;;22.80;60.00;;;;;;5052634;28;20203;-70
2021/07/24 01:40:01;;;;;;;4.82;4.35;;;22.80;60.00;;;;;;5053021;28;20577;-70
2021/07/24 01:42:27;;;;;;;4.93;4.53;;;22.80;60.00;;;;;;5052420;28;20217;-71
2021/07/24 01:44:52;;;;;;;5.28;4.88;;;22.80;60.00;;;;;;5052872;28;20171;-70
2021/07/24 01:47:18;;;;;;;5.57;5.07;;;22.80;60.00;;;;;;5052831;28;20175;-70
2021/07/24 01:52:46;;;;;;;5.10;4.70;;;22.80;60.10;;;;;;5052814;28;20186;-69
2021/07/24 01:55:13;;;;;;;4.75;4.30;;;22.70;60.00;;;;;;5037173;28;20638;-70
2021/07/24 01:57:41;;;;;;;4.93;4.53;;;22.70;60.00;;;;;;5052232;28;20214;-70
2021/07/24 02:00:08;;;;;;;4.93;4.43;;;22.70;60.00;;;;;;5034944;28;20264;-70
2021/07/24 02:02:33;;;;;;;5.55;5.15;;;22.70;60.00;;;;;;5051991;28;20640;-70
2021/07/24 02:04:59;;;;;;;4.47;4.13;;;22.70;60.00;;;;;;5034851;28;20250;-70
2021/07/24 02:07:24;;;;;;;4.78;4.38;;;22.70;60.00;;;;;;5052467;28;20233;-71
2021/07/24 02:09:50;;;;;;;4.65;4.32;;;22.70;60.00;;;;;;5052028;28;20170;-71
2021/07/24 02:12:15;;;;;;;4.90;4.50;;;22.70;60.10;;;;;;5037094;28;20202;-71
2021/07/24 02:14:41;;;;;;;4.97;4.57;;;22.70;60.10;;;;;;5057012;28;20210;-71
2021/07/24 02:17:06;;;;;;;4.95;4.55;;;22.70;60.10;;;;;;5056365;28;20274;-71
2021/07/24 02:19:32;;;;;;;4.82;4.43;;;22.70;60.00;;;;;;5056324;28;20179;-71
2021/07/24 02:21:58;;;;;;;4.60;4.30;;;22.70;60.10;;;;;;5039022;28;20542;-71
2021/07/24 02:24:23;;;;;;;4.43;4.13;;;22.70;60.10;;;;;;5055702;28;20226;-70
2021/07/24 02:26:49;;;;;;;5.10;4.60;;;22.70;60.10;;;;;;5056345;28;20178;-70
2021/07/24 02:29:14;;;;;;;5.00;4.60;;;22.70;60.10;;;;;;5056428;28;20175;-69
2021/07/24 02:31:40;;;;;;;4.70;4.30;;;22.70;60.10;;;;;;5055878;28;20187;-70
2021/07/24 02:34:05;;;;;;;4.43;4.13;;;22.70;60.10;;;;;;5056474;28;20167;-70
2021/07/24 02:36:31;;;;;;;4.72;4.32;;;22.70;60.10;;;;;;5056156;28;20241;-70
2021/07/24 02:38:56;;;;;;;5.13;4.63;;;22.70;60.20;;;;;;5055821;28;20217;-70
2021/07/24 02:41:22;;;;;;;5.00;4.60;;;22.60;60.10;;;;;;5055869;28;20186;-72
2021/07/24 02:43:47;;;;;;;4.50;4.15;;;22.70;60.20;;;;;;5056239;28;20179;-70
2021/07/24 02:46:18;;;;;;;4.68;4.28;;;22.60;60.10;;;;;;5055496;28;20565;-70
2021/07/24 02:48:45;;;;;;;4.75;4.35;;;22.60;60.20;;;;;;5056383;28;20233;-70
2021/07/24 02:51:10;;;;;;;4.95;4.55;;;22.60;60.20;;;;;;5055688;28;20183;-71
2021/07/24 02:53:35;;;;;;;5.07;4.65;;;22.60;60.30;;;;;;5055678;28;20179;-71
2021/07/24 02:56:01;;;;;;;4.07;3.78;;;22.60;60.20;;;;;;5056016;28;20187;-71
2021/07/24 02:58:26;;;;;;;4.93;4.53;;;22.60;60.20;;;;;;5054928;28;20640;-71
2021/07/24 03:00:52;;;;;;;4.68;4.28;;;22.60;60.20;;;;;;5055984;28;20175;-70
2021/07/24 03:03:17;;;;;;;4.72;4.32;;;22.60;60.20;;;;;;5055835;28;20186;-70
2021/07/24 03:05:44;;;;;;;5.25;4.80;;;22.60;61.10;;;;;;5055361;28;20175;-70
2021/07/24 03:08:09;;;;;;;4.60;4.20;;;22.60;60.30;;;;;;5055630;28;20171;-72
2021/07/24 03:10:35;;;;;;;4.53;4.13;;;22.60;60.30;;;;;;5055405;28;20589;-71
2021/07/24 03:13:00;;;;;;;4.53;4.22;;;22.60;60.30;;;;;;5055223;28;20172;-71
2021/07/24 03:15:26;;;;;;;4.47;4.07;;;22.60;60.30;;;;;;5055446;28;20290;-71
2021/07/24 03:17:51;;;;;;;4.55;4.15;;;22.60;60.30;;;;;;5055698;28;20257;-71
2021/07/24 03:20:17;;;;;;;4.47;4.07;;;22.60;60.30;;;;;;5054845;28;20634;-71
2021/07/24 03:22:42;;;;;;;4.65;4.25;;;22.60;60.30;;;;;;5055025;28;20211;-71
2021/07/24 03:25:08;;;;;;;5.00;4.60;;;22.60;60.30;;;;;;5055366;28;20241;-70
2021/07/24 03:27:34;;;;;;;4.30;3.90;;;22.50;60.30;;;;;;5054661;28;20226;-70
2021/07/24 03:30:00;;;;;;;4.93;4.53;;;22.50;60.30;;;;;;5055052;28;20175;-69
2021/07/24 03:32:25;;;;;;;4.70;4.30;;;22.60;60.40;;;;;;5037535;28;20179;-70
2021/07/24 03:34:51;;;;;;;4.45;4.05;;;22.60;60.40;;;;;;5054948;28;20175;-71
2021/07/24 03:37:20;;;;;;;5.20;4.75;;;22.50;60.30;;;;;;5054741;28;20276;-70
2021/07/24 03:39:45;;;;;;;4.55;4.15;;;22.60;60.30;;;;;;5055133;28;20181;-71
2021/07/24 03:42:11;;;;;;;4.28;3.97;;;22.50;60.30;;;;;;5054743;28;20176;-71
2021/07/24 03:44:36;;;;;;;4.68;4.28;;;22.60;60.30;;;;;;5054858;28;20253;-71
2021/07/24 03:47:02;;;;;;;4.72;4.32;;;22.50;60.30;;;;;;5055005;28;20590;-70
2021/07/24 03:49:30;;;;;;;4.57;4.18;;;22.50;60.30;;;;;;5054102;28;20190;-69
2021/07/24 03:51:56;;;;;;;4.10;3.80;;;22.50;60.30;;;;;;5055179;28;20270;-71
2021/07/24 03:54:21;;;;;;;4.68;4.28;;;22.50;60.30;;;;;;5054714;28;20294;-71
2021/07/24 03:56:47;;;;;;;3.92;3.63;;;22.50;60.30;;;;;;5054969;28;20179;-71
2021/07/24 03:59:12;;;;;;;4.40;4.00;;;22.50;60.30;;;;;;5054865;28;20743;-71
2021/07/24 04:01:40;;;;;;;3.80;3.50;;;22.50;60.30;;;;;;5054341;28;20175;-70
2021/07/24 04:04:05;;;;;;;4.95;4.55;;;22.50;60.30;;;;;;5054687;28;20183;-71
2021/07/24 04:06:34;;;;;;;4.35;4.05;;;22.50;60.30;;;;;;5054638;28;20647;-71
2021/07/24 04:09:02;;;;;;;4.22;3.92;;;22.50;60.30;;;;;;5054091;28;20257;-72
2021/07/24 04:11:27;;;;;;;4.30;4.00;;;22.50;60.30;;;;;;5036948;28;20183;-72
2021/07/24 04:13:53;;;;;;;4.80;4.40;;;22.50;60.30;;;;;;5036969;28;20556;-72
2021/07/24 04:16:19;;;;;;;4.55;4.18;;;22.50;60.30;;;;;;5036023;28;20663;-72
2021/07/24 04:18:44;;;;;;;4.18;3.88;;;22.50;60.30;;;;;;5054277;28;20207;-70
2021/07/24 04:21:10;;;;;;;4.70;4.22;;;22.60;60.30;;;;;;5054671;28;20547;-71
2021/07/24 04:23:35;;;;;;;5.03;4.63;;;22.50;60.30;;;;;;5053740;28;20191;-70
2021/07/24 04:26:01;;;;;;;4.38;4.07;;;22.50;60.30;;;;;;5053893;28;20578;-71
2021/07/24 04:28:26;;;;;;;4.82;4.38;;;22.50;60.30;;;;;;5054045;28;20179;-70
2021/07/24 04:30:52;;;;;;;4.53;4.13;;;22.50;60.30;;;;;;5054122;28;20181;-70
2021/07/24 04:33:17;;;;;;;4.88;4.47;;;22.50;60.20;;;;;;5053739;28;20515;-71
2021/07/24 04:35:47;;;;;;;4.53;4.13;;;22.60;60.30;;;;;;5053802;28;20718;-71
2021/07/24 04:38:13;;;;;;;4.45;4.15;;;22.50;60.30;;;;;;5053578;28;20726;-71
2021/07/24 04:40:38;;;;;;;5.18;4.68;;;22.50;60.30;;;;;;5054140;28;20167;-71
2021/07/24 04:43:04;;;;;;;4.53;4.00;;;22.60;60.30;;;;;;5054253;28;20171;-70
2021/07/24 04:45:29;;;;;;;4.10;3.80;;;22.50;60.30;;;;;;5053033;28;20175;-71
2021/07/24 04:47:55;;;;;;;4.35;4.05;;;22.50;60.30;;;;;;5054087;28;20571;-71
2021/07/24 04:50:20;;;;;;;4.50;4.13;;;22.50;60.30;;;;;;5053725;28;20262;-69
2021/07/24 04:52:46;;;;;;;4.50;4.18;;;22.50;60.30;;;;;;5052945;28;20695;-69
2021/07/24 04:55:11;;;;;;;4.30;3.95;;;22.50;60.30;;;;;;5035931;28;20185;-70
2021/07/24 04:57:37;;;;;;;4.28;3.90;;;22.50;60.30;;;;;;5035710;28;20303;-69
2021/07/24 05:00:05;;;;;;;4.38;4.00;;;22.60;60.40;;;;;;5053157;28;20175;-69
2021/07/24 05:02:31;;;;;;;4.30;3.90;;;22.50;60.20;;;;;;5053299;28;20183;-69
2021/07/24 05:04:56;;;;;;;4.32;3.92;;;22.50;60.30;;;;;;5053019;28;20174;-70
2021/07/24 05:07:22;;;;;;;4.68;4.28;;;22.50;60.30;;;;;;5053062;28;20171;-70
2021/07/24 05:09:47;;;;;;;4.68;4.28;;;22.50;60.30;;;;;;5035891;28;20202;-71
2021/07/24 05:12:13;;;;;;;4.65;4.18;;;22.50;60.20;;;;;;5053179;28;20258;-70
2021/07/24 05:14:38;;;;;;;4.55;4.05;;;22.50;60.20;;;;;;5053162;28;20187;-70
2021/07/24 05:17:11;;;;;;;4.30;4.00;;;22.60;60.20;;;;;;5053494;28;20171;-70
2021/07/24 05:19:43;;;;;;;4.70;4.30;;;22.50;60.20;;;;;;5052607;28;20187;-70
2021/07/24 05:22:10;;;;;;;4.75;4.38;;;22.50;60.20;;;;;;5053064;28;20213;-70
2021/07/24 05:24:36;;;;;;;4.75;4.25;;;22.60;60.30;;;;;;5052621;28;20689;-69
2021/07/24 05:27:02;;;;;;;4.05;3.70;;;22.50;60.20;;;;;;5052842;28;20205;-70
2021/07/24 05:29:27;;;;;;;4.53;4.13;;;22.50;60.20;;;;;;5052771;28;20183;-69
2021/07/24 05:31:53;;;;;;;4.68;4.28;;;22.50;60.20;;;;;;5053144;28;20543;-69
2021/07/24 05:34:18;;;;;;;4.65;4.22;;;22.50;60.30;;;;;;5052353;28;20209;-69
2021/07/24 05:36:44;;;;;;;4.28;3.97;;;22.50;60.30;;;;;;5052883;28;20182;-69
2021/07/24 05:39:09;;;;;;;4.25;3.85;;;22.60;60.30;;;;;;5052993;28;20218;-69
2021/07/24 05:41:35;;;;;;;3.90;3.60;;;22.60;60.30;;;;;;5052202;28;20171;-71
2021/07/24 05:44:00;;;;;;;4.35;4.05;;;22.60;60.20;;;;;;5053222;28;20171;-70
2021/07/24 05:46:26;;;;;;;3.58;3.28;;;22.60;60.20;;;;;;5052774;28;20233;-70
2021/07/24 05:48:51;;;;;;;4.80;4.38;;;22.60;60.20;;;;;;5052163;28;20179;-69
2021/07/24 05:51:17;;;;;;;4.78;4.38;;;22.60;60.10;;;;;;5052523;28;20797;-69
2021/07/24 05:53:42;;;;;;;4.53;4.13;;;22.60;60.10;;;;;;5052959;28;20206;-68
2021/07/24 05:56:08;;;;;;;4.47;4.07;;;22.60;60.10;;;;;;5052297;28;20171;-69
2021/07/24 05:58:34;;;;;;;4.45;4.05;;;22.70;60.10;;;;;;5052335;28;20215;-68
2021/07/24 06:00:59;;;;;;;3.70;3.42;;;22.60;60.00;;;;;;5052181;28;20182;-69
2021/07/24 06:03:25;;;;;;;3.85;3.55;;;22.70;60.10;;;;;;5052323;28;20170;-68
2021/07/24 06:05:50;;;;;;;4.60;4.20;;;22.70;60.00;;;;;;5052577;28;20167;-70
2021/07/24 06:08:16;;;;;;;4.50;4.10;;;22.70;60.10;;;;;;5052048;28;20218;-70
2021/07/24 06:10:41;;;;;;;4.20;3.90;;;22.70;60.10;;;;;;5052503;28;20199;-70
2021/07/24 06:13:07;;;;;;;4.43;4.10;;;22.70;60.00;;;;;;5052731;28;20274;-70
2021/07/24 06:15:32;;;;;;;4.40;4.00;;;22.70;60.00;;;;;;5051970;28;20253;-69
2021/07/24 06:17:58;;;;;;;4.47;4.03;;;22.70;60.00;;;;;;5052262;28;20298;-71
2021/07/24 06:20:24;;;;;;;3.97;3.67;;;22.70;60.00;;;;;;5052243;28;20602;-69
2021/07/24 06:22:49;;;;;;;4.03;3.72;;;22.70;60.00;;;;;;5052328;28;20645;-71
2021/07/24 06:25:15;;;;;;;3.95;3.50;;;22.70;60.00;;;;;;5052218;28;20693;-70
2021/07/24 06:27:41;;;;;;;4.15;3.75;;;22.70;60.00;;;;;;5052647;28;20171;-68
2021/07/24 06:30:09;;;;;;;4.38;4.00;;;22.70;60.00;;;;;;5051932;28;20637;-69
2021/07/24 06:32:34;;;;;;;3.72;3.42;;;22.70;59.90;;;;;;5051990;28;20179;-68
2021/07/24 06:35:00;;;;;;;4.35;4.00;;;22.80;60.00;;;;;;5052324;28;20533;-71
2021/07/24 06:37:25;;;;;;;4.25;3.85;;;22.80;60.00;;;;;;5051746;28;20198;-70
2021/07/24 06:39:51;;;;;;;4.20;3.90;;;22.80;60.00;;;;;;5052315;28;20202;-70
2021/07/24 06:42:17;;;;;;;4.60;4.20;;;22.80;60.00;;;;;;5052115;28;20179;-70
2021/07/24 06:44:42;;;;;;;4.15;3.85;;;22.80;60.00;;;;;;5051517;28;20178;-70
2021/07/24 06:47:08;;;;;;;4.07;3.78;;;22.80;59.90;;;;;;5052234;28;20175;-69
2021/07/24 06:49:33;;;;;;;4.28;3.88;;;22.80;59.90;;;;;;5051946;28;20178;-69
2021/07/24 06:51:59;;;;;;;3.83;3.53;;;22.80;60.00;;;;;;5051885;28;20626;-69
2021/07/24 06:54:24;;;;;;;4.10;3.70;;;22.80;60.00;;;;;;5051971;28;20179;-64
2021/07/24 06:56:50;;;;;;;4.30;4.00;;;22.80;60.80;;;;;;5052510;28;20528;-64
2021/07/24 06:59:15;;;;;;;4.13;3.83;;;22.80;59.90;;;;;;5055050;28;20214;-68
2021/07/24 07:01:41;;;;;;;4.20;3.80;;;22.80;60.10;;;;;;5055970;28;20167;-68
2021/07/24 07:04:07;;;;;;;4.80;4.40;;;22.80;60.10;;;;;;5055756;28;20171;-69
2021/07/24 07:06:33;;;;;;;4.43;4.00;;;22.80;60.10;;;;;;5054839;28;20178;-68
2021/07/24 07:08:59;;;;;;;4.32;3.92;;;22.80;60.20;;;;;;5055803;28;20210;-67
2021/07/24 07:11:25;;;;;;;5.00;4.50;;;22.80;60.20;;;;;;5055196;28;20164;-67
2021/07/24 07:13:50;;;;;;;4.65;3.88;;;22.80;60.20;;;;;;5055444;28;20167;-67
2021/07/24 07:16:16;;;;;;;4.55;4.15;;;22.80;60.20;;;;;;5055385;28;20254;-67
2021/07/24 07:18:41;;;;;;;4.95;4.55;;;22.80;60.20;;;;;;5054944;28;20699;-68
2021/07/24 07:21:08;;;;;;;5.05;4.60;;;22.80;60.20;;;;;;5055508;28;20178;-68
2021/07/24 07:23:34;;;;;;;4.97;4.20;;;22.80;60.20;;;;;;5055363;28;20202;-68
2021/07/24 07:26:01;;;;;;;4.80;4.40;;;22.80;60.20;;;;;;5054860;28;20628;-67
2021/07/24 07:28:26;;;;;;;5.10;4.10;;;22.80;60.10;;;;;;5054993;28;20203;-66
2021/07/24 07:30:51;;;;;;;4.50;4.20;;;22.80;60.20;;;;;;5055565;28;20199;-66
2021/07/24 07:33:17;;;;;;;5.63;5.13;;;22.80;60.20;;;;;;5054468;28;20262;-67
2021/07/24 07:35:43;;;;;;;4.88;4.43;;;22.80;60.10;;;;;;5055351;28;20261;-69
2021/07/24 07:38:08;;;;;;;5.00;4.60;;;22.80;60.10;;;;;;5055341;28;20211;-69
2021/07/24 07:40:40;;;;;;;4.97;4.43;;;22.90;60.20;;;;;;5054453;28;20167;-68
2021/07/24 07:43:06;;;;;;;6.75;4.75;;;22.80;60.10;;;;;;5055168;28;20300;-69
2021/07/24 07:45:32;;;;;;;5.10;4.53;;;22.90;60.00;;;;;;5055036;28;20198;-70
2021/07/24 07:47:57;;;;;;;5.18;4.75;;;22.90;60.10;;;;;;5054328;28;20607;-71
2021/07/24 07:50:23;;;;;;;6.00;4.75;;;22.90;60.10;;;;;;5054655;28;20657;-71
2021/07/24 07:52:49;;;;;;;4.13;3.72;;;22.90;60.90;;;;;;5055214;28;20175;-69
2021/07/24 07:55:15;;;;;;;6.15;4.30;;;23.00;60.20;;;;;;5054420;28;20254;-69
2021/07/24 07:57:41;;;;;;;5.95;4.53;;;23.00;60.10;;;;;;5054831;28;20203;-70
2021/07/24 08:00:07;;;;;;;5.97;5.25;;;23.00;60.10;;;;;;5054726;28;20266;-69
2021/07/24 08:02:32;;;;;;;5.15;4.63;;;23.00;60.00;;;;;;5053718;28;20179;-69
2021/07/24 08:04:59;;;;;;;5.32;4.22;;;23.00;60.00;;;;;;5054703;28;20171;-69
2021/07/24 08:07:25;;;;;;;4.50;4.10;;;23.10;60.00;;;;;;5054572;28;20171;-70
2021/07/24 08:09:50;;;;;;;5.30;4.57;;;23.10;60.00;;;;;;5052896;28;20217;-68
2021/07/24 08:12:16;;;;;;;4.88;4.38;;;23.10;59.90;;;;;;5054392;28;20171;-68
2021/07/24 08:14:42;;;;;;;4.68;4.30;;;23.10;59.90;;;;;;5054123;28;20175;-68
2021/07/24 08:17:08;;;;;;;4.90;4.20;;;23.10;59.90;;;;;;5054282;28;20261;-68
2021/07/24 08:19:33;;;;;;;4.57;4.18;;;23.10;59.80;;;;;;5054381;28;20180;-69
2021/07/24 08:21:59;;;;;;;5.53;4.57;;;23.20;59.80;;;;;;5053878;28;20175;-70
2021/07/24 08:24:24;;;;;;;4.93;4.45;;;23.20;59.80;;;;;;5053990;28;20250;-68
2021/07/24 08:26:50;;;;;;;5.28;4.50;;;23.20;59.80;;;;;;5057684;28;20257;-67
2021/07/24 08:29:17;;;;;;;4.85;4.45;;;23.20;59.80;;;;;;5058216;28;20167;-67
2021/07/24 08:31:43;;;;;;;5.07;4.57;;;23.20;59.70;;;;;;5071579;28;20632;-68
2021/07/24 08:34:08;;;;;;;4.85;4.45;;;23.20;59.70;;;;;;5059669;28;20179;-68
2021/07/24 08:36:34;;;;;;;4.78;4.20;;;23.30;59.70;;;;;;5052322;28;20183;-68
2021/07/24 08:39:00;;;;;;;5.20;4.68;;;23.30;59.60;;;;;;5053957;28;20215;-68
2021/07/24 08:41:25;;;;;;;4.85;4.35;;;23.30;59.60;;;;;;5053896;28;20194;-69
2021/07/24 08:43:51;;;;;;;4.80;4.40;;;23.40;59.60;;;;;;5065550;28;20655;-68
2021/07/24 08:46:17;;;;;;;4.22;3.80;;;23.40;59.60;;;;;;5073455;28;20171;-69
2021/07/24 08:48:43;;;;;;;4.75;4.35;;;23.40;59.60;;;;;;5074100;28;20178;-69
2021/07/24 08:51:08;;;;;;;5.05;4.57;;;23.40;59.50;;;;;;5072039;28;20166;-68
2021/07/24 08:53:34;;;;;;;4.32;4.03;;;23.40;59.50;;;;;;5072435;28;20177;-68
2021/07/24 08:56:02;;;;;;;4.13;3.72;;;23.40;59.50;;;;;;5055921;28;20224;-68
2021/07/24 08:58:32;;;;;;;4.75;4.22;;;23.50;59.60;;;;;;5072384;28;20796;-68
2021/07/24 09:00:57;;;;;;;4.28;3.95;;;23.50;59.60;;;;;;5043307;28;20304;-67
2021/07/24 09:03:23;;;;;;;5.18;4.68;;;23.50;59.60;;;;;;5053548;28;20183;-69
2021/07/24 09:05:49;;;;;;;4.95;4.50;;;23.50;59.50;;;;;;5035051;28;20167;-69
2021/07/24 09:08:14;;;;;;;4.90;4.50;;;23.50;59.50;;;;;;5053573;28;20194;-68
2021/07/24 09:10:40;;;;;;;3.97;3.67;;;23.60;59.50;;;;;;5053187;28;20641;-68
2021/07/24 09:13:06;;;;;;;3.90;3.50;;;23.50;59.50;;;;;;5052668;28;20183;-67
2021/07/24 09:15:32;;;;;;;5.00;4.47;;;23.50;59.60;;;;;;5053097;28;20172;-68
2021/07/24 09:17:57;;;;;;;4.60;4.20;;;23.50;59.60;;;;;;5052937;28;20226;-68
2021/07/24 09:20:26;;;;;;;4.63;4.22;;;23.60;59.50;;;;;;5052671;28;20687;-69
2021/07/24 09:22:53;;;;;;;4.60;4.07;;;23.60;59.50;;;;;;5055435;28;20254;-68
2021/07/24 09:25:20;;;;;;;4.43;4.07;;;23.60;59.50;;;;;;5054814;28;20231;-67
2021/07/24 09:27:52;;;;;;;5.15;4.65;;;23.60;59.50;;;;;;5052976;28;20212;-68
2021/07/24 09:30:24;;;;;;;5.97;4.55;;;23.70;59.60;;;;;;5053072;28;20214;-66
2021/07/24 09:33:08;;;;;;;4.10;3.72;;;23.70;59.60;;;;;;5052468;28;20641;-68
2021/07/24 09:35:52;;;;;;;4.82;4.40;;;23.70;59.70;;;;;;5069146;28;20182;-70
2021/07/24 09:38:34;;;;;;;4.72;4.32;;;23.70;59.70;;;;;;5072656;28;20273;-69
2021/07/24 09:41:01;;;;;;;4.05;3.65;;;23.70;59.80;;;;;;5072394;28;20179;-69
2021/07/24 09:43:41;;;;;;;4.28;3.97;;;23.70;59.90;;;;;;5072715;28;20178;-71
2021/07/24 09:46:10;;;;;;;4.38;3.95;;;23.70;59.90;;;;;;5072740;28;20193;-70
2021/07/24 09:48:36;;;;;;;5.70;4.70;;;23.70;59.90;;;;;;5072593;28;20232;-73
2021/07/24 09:51:02;;;;;;;4.05;3.72;;;23.70;60.00;;;;;;5073315;28;20174;-71
2021/07/24 09:53:37;;;;;;;5.47;4.45;;;23.60;59.90;;;;;;5072324;28;20181;-69
2021/07/24 09:56:05;;;;;;;4.22;3.83;;;23.70;60.00;;;;;;5072956;28;20178;-70
2021/07/24 09:58:30;;;;;;;5.75;4.15;;;23.70;60.00;;;;;;5071315;28;20229;-68
2021/07/24 10:01:09;;;;;;;4.35;3.95;;;23.70;60.00;;;;;;5072329;28;20533;-68
2021/07/24 10:03:35;;;;;;;4.03;3.55;;;23.60;60.00;;;;;;5072783;28;20174;-68
2021/07/24 10:06:08;;;;;;;4.93;4.53;;;23.60;60.00;;;;;;5072885;28;20174;-67
2021/07/24 10:08:34;;;;;;;4.28;3.97;;;23.60;60.10;;;;;;5071599;28;20707;-67
2021/07/24 10:10:59;;;;;;;5.22;4.28;;;23.60;60.10;;;;;;5071622;28;20174;-67
2021/07/24 10:13:25;;;;;;;5.35;4.13;;;23.60;60.10;;;;;;5072440;28;20200;-67
2021/07/24 10:15:50;;;;;;;4.28;3.97;;;23.60;60.10;;;;;;5070734;28;20170;-67
2021/07/24 10:18:16;;;;;;;4.00;3.70;;;23.60;60.10;;;;;;5072436;28;20232;-68
2021/07/24 10:20:48;;;;;;;4.93;3.92;;;23.60;60.10;;;;;;5072781;28;20181;-69
2021/07/24 10:23:15;;;;;;;4.57;4.05;;;23.60;60.10;;;;;;5071969;28;20198;-69
2021/07/24 10:26:00;;;;;;;4.43;4.03;;;23.60;60.10;;;;;;5072303;28;20261;-68
2021/07/24 10:28:53;;;;;;;4.28;3.97;;;23.60;60.10;;;;;;5071708;28;20640;-67
2021/07/24 10:31:42;;;;;;;4.57;4.18;;;23.60;60.10;;;;;;5071345;28;20249;-67
2021/07/24 10:34:08;;;;;;;4.47;4.07;;;23.60;60.00;;;;;;5053908;28;20645;-68
2021/07/24 10:36:38;;;;;;;4.20;3.90;;;23.60;60.00;;;;;;5054139;28;20179;-68
2021/07/24 10:39:04;;;;;;;4.28;3.88;;;23.60;60.90;;;;;;5056669;28;20207;-69
2021/07/24 10:41:30;;;;;;;4.53;4.10;;;23.60;60.10;;;;;;5056181;28;20257;-69
2021/07/24 10:43:59;;;;;;;4.18;3.78;;;23.60;60.00;;;;;;5055629;28;20271;-69
2021/07/24 10:46:48;;;;;;;4.68;4.20;;;23.60;60.00;;;;;;5055981;28;20173;-69
2021/07/24 10:49:25;;;;;;;5.00;3.90;;;23.60;60.00;;;;;;5054958;28;20198;-69
2021/07/24 10:51:54;;;;;;;7.32;4.07;;;23.60;60.00;;;;;;5056303;28;20197;-69
2021/07/24 10:54:20;;;;;;;4.85;4.00;;;23.60;60.10;;;;;;5055996;28;20179;-69
2021/07/24 10:56:45;;;;;;;4.32;3.95;;;23.60;60.00;;;;;;5055827;28;20282;-68
2021/07/24 10:59:14;;;;;;;5.03;4.50;;;23.60;60.00;;;;;;5055491;28;20429;-71
2021/07/24 11:01:47;;;;;;;4.75;4.20;;;23.60;60.10;;;;;;5055573;28;20649;-71
2021/07/24 11:04:37;;;;;;;4.68;4.20;;;23.60;60.00;;;;;;5055556;28;20206;-71
2021/07/24 11:07:12;;;;;;;4.75;3.95;;;23.60;60.00;;;;;;5056007;28;20211;-71
2021/07/24 11:09:38;;;;;;;4.43;3.63;;;23.60;60.00;;;;;;5055470;28;20175;-71
2021/07/24 11:12:08;;;;;;;4.25;3.90;;;23.60;60.90;;;;;;5054929;28;20193;-71
2021/07/24 11:14:37;;;;;;;4.15;3.72;;;23.60;60.10;;;;;;5055676;28;20191;-70
2021/07/24 11:17:05;;;;;;;5.75;3.60;;;23.60;60.10;;;;;;5055656;28;20661;-71
2021/07/24 11:19:41;;;;;;;4.90;3.92;;;23.60;60.10;;;;;;5054634;28;20211;-71
2021/07/24 11:22:14;;;;;;;4.07;3.78;;;23.60;60.20;;;;;;5054607;28;20183;-71
2021/07/24 11:24:49;;;;;;;6.45;3.65;;;23.60;60.20;;;;;;5054163;28;20310;-70
2021/07/24 11:27:14;;;;;;;3.97;3.50;;;23.60;60.30;;;;;;5054340;28;20236;-69
2021/07/24 11:29:40;;;;;;;4.85;3.97;;;23.60;60.40;;;;;;5054044;28;20637;-68
2021/07/24 11:32:06;;;;;;;6.05;4.03;;;23.50;60.40;;;;;;5053843;28;20175;-68
2021/07/24 11:34:32;;;;;;;4.97;3.90;;;23.50;60.40;;;;;;5061638;28;20257;-69
2021/07/24 11:36:59;;;;;;;4.40;4.00;;;23.50;60.40;;;;;;5074257;28;20254;-69
2021/07/24 11:39:33;;;;;;;3.90;3.50;;;23.50;60.40;;;;;;5073220;28;20301;-70
2021/07/24 11:41:59;;;;;;;4.45;4.05;;;23.50;61.30;;;;;;5074314;28;20170;-70
2021/07/24 11:44:29;;;;;;;4.93;3.72;;;23.50;60.40;;;;;;5055822;28;20174;-71
2021/07/24 11:47:04;;;;;;;4.50;3.95;;;23.50;60.40;;;;;;5073560;28;20174;-71
2021/07/24 11:49:30;;;;;;;4.20;3.70;;;23.50;60.50;;;;;;5073730;28;20162;-71
2021/07/24 11:51:55;;;;;;;4.65;4.13;;;23.50;60.40;;;;;;5073905;28;20637;-69
2021/07/24 11:54:32;;;;;;;5.20;3.58;;;23.50;60.50;;;;;;5073175;28;20186;-69
2021/07/24 11:56:58;;;;;;;4.10;3.80;;;23.50;60.50;;;;;;5074117;28;20269;-69
2021/07/24 11:59:27;;;;;;;3.70;3.40;;;23.60;60.50;;;;;;5073490;28;20301;-69
2021/07/24 12:01:54;;;;;;;5.10;3.95;;;23.50;60.50;;;;;;5071800;28;20181;-69
2021/07/24 12:04:19;;;;;;;4.28;3.83;;;23.50;60.60;;;;;;5072455;28;20588;-67
2021/07/24 12:06:52;;;;;;;5.60;4.13;;;23.50;60.50;;;;;;5073099;28;20257;-69
2021/07/24 12:09:18;;;;;;;4.10;3.80;;;23.60;60.50;;;;;;5055689;28;20315;-69
2021/07/24 12:11:54;;;;;;;6.38;4.38;;;23.50;60.30;;;;;;5073756;28;20174;-69
2021/07/24 12:14:24;;;;;;;4.45;3.90;;;23.50;60.40;;;;;;5071472;28;20185;-68
2021/07/24 12:17:09;;;;;;;4.50;4.10;;;23.50;60.50;;;;;;5073677;28;20182;-69
2021/07/24 12:19:42;;;;;;;4.18;3.72;;;23.50;60.50;;;;;;5073435;28;20259;-69
2021/07/24 12:22:11;;;;;;;5.85;3.78;;;23.50;60.50;;;;;;5074955;28;20178;-70
2021/07/24 12:24:37;;;;;;;4.20;3.88;;;23.50;60.50;;;;;;5038921;28;1104489;-69
2021/07/24 12:27:09;;;;;;;4.68;3.95;;;23.50;60.50;;;;;;5073135;28;20174;-70
2021/07/24 12:29:54;;;;;;;4.30;3.90;;;23.50;61.10;;;;;;5073286;28;20653;-68
2021/07/24 12:32:21;;;;;;;4.65;4.18;;;23.50;60.90;;;;;;5074103;28;20182;-69
2021/07/24 12:34:47;;;;;;;5.07;4.05;;;23.50;60.90;;;;;;5064157;28;20175;-71
2021/07/24 12:37:32;;;;;;;3.85;3.42;;;23.50;60.90;;;;;;5053631;28;20175;-71
2021/07/24 12:40:12;;;;;;;4.40;4.00;;;23.50;60.90;;;;;;5054138;28;20649;-69
2021/07/24 12:42:37;;;;;;;4.20;3.70;;;23.50;60.90;;;;;;5051405;28;20245;-69
2021/07/24 12:45:03;;;;;;;4.38;3.97;;;23.60;61.00;;;;;;5048022;28;20216;-70
2021/07/24 12:47:36;;;;;;;4.57;4.15;;;23.60;60.90;;;;;;5044170;28;20183;-71
2021/07/24 12:50:12;;;;;;;4.05;3.70;;;23.60;61.00;;;;;;5039766;28;20551;-70
2021/07/24 12:52:48;;;;;;;4.07;3.78;;;23.60;60.90;;;;;;5050668;28;20285;-70